createdAt,value
2018-06-30T00:01:50.201Z,60.70
2018-06-30T00:04:18.224Z,60.80
2018-06-30T00:06:46.281Z,60.80
2018-06-30T00:09:14.329Z,60.90
2018-06-30T00:11:42.360Z,61.20
2018-06-30T00:14:10.424Z,61.50
2018-06-30T00:16:38.460Z,62.20
2018-06-30T00:19:06.577Z,61.90
2018-06-30T00:21:34.617Z,61.70
2018-06-30T00:24:02.677Z,61.60
2018-06-30T00:26:30.733Z,61.80
2018-06-30T00:28:58.817Z,62.00
2018-06-30T00:31:26.884Z,62.50
2018-06-30T00:33:54.929Z,63.00
2018-06-30T00:36:22.988Z,62.20
2018-06-30T00:38:51.037Z,62.40
2018-06-30T00:41:19.101Z,62.50
2018-06-30T00:43:47.167Z,62.80
2018-06-30T00:46:15.244Z,63.10
2018-06-30T00:48:43.285Z,64.30
2018-06-30T00:51:11.356Z,63.60
2018-06-30T00:53:39.425Z,63.90
2018-06-30T00:56:07.458Z,65.00
2018-06-30T00:58:35.505Z,64.40
2018-06-30T01:01:03.524Z,64.60
2018-06-30T01:03:31.581Z,65.00
2018-06-30T01:05:59.721Z,65.30
2018-06-30T01:08:27.760Z,65.80
2018-06-30T01:10:55.828Z,65.80
2018-06-30T01:13:23.877Z,66.00
2018-06-30T01:15:51.949Z,66.30
2018-06-30T01:18:20.002Z,66.70
2018-06-30T01:20:48.077Z,67.20
2018-06-30T01:23:16.176Z,67.40
2018-06-30T01:25:44.196Z,67.60
2018-06-30T01:28:12.329Z,68.00
2018-06-30T01:30:40.370Z,68.20
2018-06-30T01:33:08.430Z,68.50
2018-06-30T01:35:36.504Z,69.30
2018-06-30T01:38:04.526Z,69.00
2018-06-30T01:40:32.565Z,69.10
2018-06-30T01:43:00.608Z,69.30
2018-06-30T01:45:28.713Z,69.40
2018-06-30T01:47:56.784Z,69.60
2018-06-30T01:50:24.817Z,70.00
2018-06-30T01:52:52.868Z,70.30
2018-06-30T01:55:20.901Z,70.60
2018-06-30T01:57:49.025Z,70.90
2018-06-30T02:00:17.082Z,71.40
2018-06-30T02:02:45.120Z,71.60
2018-06-30T02:05:13.173Z,72.00
2018-06-30T02:07:41.245Z,72.50
2018-06-30T02:10:09.273Z,72.70
2018-06-30T02:12:37.339Z,72.80
2018-06-30T02:15:05.793Z,73.00
2018-06-30T02:17:33.860Z,73.30
2018-06-30T02:20:01.909Z,73.40
2018-06-30T02:22:29.975Z,73.60
2018-06-30T02:24:57.996Z,73.90
2018-06-30T02:27:26.065Z,74.90
2018-06-30T02:29:54.114Z,74.30
2018-06-30T02:32:22.149Z,74.60
2018-06-30T02:34:50.212Z,75.00
2018-06-30T02:37:18.261Z,75.30
2018-06-30T02:39:46.308Z,75.50
2018-06-30T02:42:14.414Z,75.70
2018-06-30T02:44:42.430Z,75.90
2018-06-30T02:47:10.472Z,76.40
2018-06-30T02:49:38.529Z,76.60
2018-06-30T02:52:06.627Z,76.90
2018-06-30T02:54:35.479Z,77.10
2018-06-30T02:57:03.548Z,77.60
2018-06-30T02:59:31.574Z,77.60
2018-06-30T03:01:59.627Z,78.00
2018-06-30T03:04:27.713Z,78.20
2018-06-30T03:06:56.149Z,78.30
2018-06-30T03:09:24.198Z,78.80
2018-06-30T03:11:52.321Z,80.20
2018-06-30T03:16:49.129Z,80.20
2018-06-30T03:19:17.186Z,80.40
2018-06-30T03:21:45.397Z,80.80
2018-06-30T03:24:13.455Z,80.90
2018-06-30T03:26:41.519Z,81.00
2018-06-30T03:29:09.604Z,80.90
2018-06-30T03:31:37.759Z,80.90
2018-06-30T03:34:06.005Z,80.70
2018-06-30T03:36:34.057Z,80.70
2018-06-30T03:39:02.084Z,80.20
2018-06-30T03:41:30.125Z,80.00
2018-06-30T03:43:58.232Z,79.80
2018-06-30T03:46:26.286Z,79.50
2018-06-30T03:48:54.361Z,79.40
2018-06-30T03:51:22.465Z,79.50
2018-06-30T03:53:50.517Z,79.50
2018-06-30T03:56:18.551Z,79.00
2018-06-30T03:58:46.629Z,78.70
2018-06-30T04:01:14.726Z,78.70
2018-06-30T04:03:42.785Z,78.10
2018-06-30T04:06:10.821Z,78.60
2018-06-30T04:08:38.872Z,78.40
2018-06-30T04:11:06.944Z,78.60
2018-06-30T04:13:35.038Z,77.90
2018-06-30T04:18:30.929Z,78.00
2018-06-30T04:20:59.098Z,77.90
2018-06-30T04:23:27.152Z,77.50
2018-06-30T04:25:55.185Z,76.40
2018-06-30T04:28:23.242Z,76.40
2018-06-30T04:30:51.337Z,76.10
2018-06-30T04:33:19.397Z,76.50
2018-06-30T04:35:47.432Z,76.70
2018-06-30T04:38:15.492Z,76.30
2018-06-30T04:40:43.522Z,75.20
2018-06-30T04:43:11.588Z,76.00
2018-06-30T04:45:39.644Z,76.00
2018-06-30T04:48:08.138Z,75.80
2018-06-30T04:50:36.405Z,75.40
2018-06-30T04:53:04.449Z,75.70
2018-06-30T04:55:32.561Z,73.90
2018-06-30T04:58:00.597Z,74.80
2018-06-30T05:00:28.633Z,74.00
2018-06-30T05:02:56.740Z,73.30
2018-06-30T05:05:24.907Z,71.90
2018-06-30T05:10:43.864Z,69.10
2018-06-30T05:13:11.989Z,69.00
2018-06-30T05:15:40.082Z,69.10
2018-06-30T05:18:08.187Z,68.60
2018-06-30T05:20:36.400Z,68.60
2018-06-30T05:23:04.489Z,66.90
2018-06-30T05:25:32.546Z,64.60
2018-06-30T05:28:00.690Z,64.70
2018-06-30T05:30:28.766Z,62.30
2018-06-30T05:32:56.817Z,61.70
2018-06-30T05:35:24.914Z,62.10
2018-06-30T05:37:53.158Z,60.50
2018-06-30T05:40:21.260Z,59.10
2018-06-30T05:42:49.315Z,59.00
2018-06-30T05:45:17.397Z,58.20
2018-06-30T05:47:45.441Z,58.10
2018-06-30T05:50:13.505Z,57.90
2018-06-30T05:52:41.623Z,56.90
2018-06-30T05:55:09.885Z,56.80
2018-06-30T05:57:37.968Z,56.40
2018-06-30T06:00:06.272Z,56.60
2018-06-30T06:02:34.288Z,56.80
2018-06-30T06:05:02.483Z,56.20
2018-06-30T06:07:30.537Z,55.80
2018-06-30T06:09:58.612Z,55.70
2018-06-30T06:12:26.654Z,55.00
2018-06-30T06:14:54.903Z,55.10
2018-06-30T06:17:22.965Z,53.20
2018-06-30T06:19:51.015Z,53.30
2018-06-30T06:22:19.261Z,53.10
2018-06-30T06:27:15.169Z,53.10
2018-06-30T06:29:43.313Z,52.50
2018-06-30T06:32:11.344Z,52.30
2018-06-30T06:34:39.397Z,51.70
2018-06-30T06:37:07.547Z,51.60
2018-06-30T06:39:35.704Z,51.30
2018-06-30T06:42:03.858Z,50.20
2018-06-30T06:44:32.016Z,50.00
2018-06-30T06:47:00.087Z,49.20
2018-06-30T06:49:28.147Z,48.10
2018-06-30T06:51:56.218Z,48.20
2018-06-30T06:54:24.304Z,46.20
2018-06-30T06:56:52.374Z,46.30
2018-06-30T06:59:20.429Z,45.20
2018-06-30T07:01:48.469Z,44.70
2018-06-30T07:06:44.440Z,42.50
2018-06-30T07:09:12.775Z,42.70
2018-06-30T07:11:41.076Z,42.50
2018-06-30T07:14:10.238Z,42.30
2018-06-30T07:16:38.549Z,42.20
2018-06-30T07:19:06.581Z,42.20
2018-06-30T07:21:34.729Z,41.80
2018-06-30T07:24:02.873Z,42.20
2018-06-30T07:26:30.973Z,40.80
2018-06-30T07:28:59.012Z,40.20
2018-06-30T07:31:27.062Z,39.90
2018-06-30T07:33:55.196Z,40.60
2018-06-30T07:36:23.236Z,39.80
2018-06-30T07:38:51.780Z,39.60
2018-06-30T07:41:19.874Z,39.30
2018-06-30T07:43:47.968Z,38.30
2018-06-30T07:46:16.081Z,37.90
2018-06-30T07:48:44.165Z,38.30
2018-06-30T07:51:12.228Z,36.50
2018-06-30T07:53:40.345Z,36.10
2018-06-30T07:56:08.411Z,36.70
2018-06-30T07:58:36.440Z,34.70
2018-06-30T08:01:04.503Z,34.50
2018-06-30T08:03:32.670Z,34.60
2018-06-30T08:06:00.853Z,34.40
2018-06-30T08:08:28.914Z,34.30
2018-06-30T08:10:56.967Z,34.20
2018-06-30T08:13:25.075Z,34.20
2018-06-30T08:15:53.147Z,33.70
2018-06-30T08:18:21.200Z,33.40
2018-06-30T08:20:49.246Z,32.50
2018-06-30T08:23:17.321Z,32.60
2018-06-30T08:25:45.349Z,32.80
2018-06-30T08:28:13.596Z,32.30
2018-06-30T08:30:41.605Z,31.60
2018-06-30T08:33:09.684Z,32.70
2018-06-30T08:35:37.825Z,32.50
2018-06-30T08:40:33.813Z,30.60
2018-06-30T08:43:01.870Z,31.60
2018-06-30T08:45:29.960Z,31.40
2018-06-30T10:09:55.819Z,30.80
2018-06-30T10:12:23.860Z,27.70
2018-06-30T10:14:51.949Z,27.30
2018-06-30T10:17:19.996Z,27.30
2018-06-30T10:19:48.296Z,27.40
2018-06-30T10:22:16.364Z,27.70
2018-06-30T10:24:44.494Z,27.10
2018-06-30T10:27:12.733Z,27.40
2018-06-30T10:29:40.793Z,26.80
2018-06-30T10:32:08.848Z,26.90
2018-06-30T10:34:36.932Z,26.60
2018-06-30T10:37:04.999Z,26.00
2018-06-30T10:39:33.037Z,27.10
2018-06-30T10:42:01.116Z,28.10
2018-06-30T10:44:29.203Z,29.00
2018-06-30T10:46:57.220Z,29.30
2018-06-30T10:49:25.315Z,29.70
2018-06-30T10:51:53.636Z,29.90
2018-06-30T10:54:21.719Z,29.50
2018-06-30T10:56:49.752Z,28.90
2018-06-30T10:59:17.824Z,28.80
2018-06-30T11:01:45.914Z,28.80
2018-06-30T11:04:13.967Z,27.80
2018-06-30T11:06:41.982Z,26.80
2018-06-30T11:09:11.796Z,27.20
2018-06-30T11:11:39.954Z,28.00
2018-06-30T11:14:08.006Z,28.40
2018-06-30T11:16:36.314Z,29.50
2018-06-30T11:19:04.405Z,28.30
2018-06-30T11:21:32.462Z,27.90
2018-06-30T11:24:00.504Z,28.70
2018-06-30T11:26:28.825Z,28.90
2018-06-30T11:28:56.878Z,28.50
2018-06-30T11:31:24.912Z,29.10
2018-06-30T11:33:52.985Z,28.50
2018-06-30T11:36:21.044Z,29.30
2018-06-30T11:38:49.104Z,29.30
2018-06-30T11:41:17.168Z,29.50
2018-06-30T11:43:45.469Z,28.90
2018-06-30T11:46:13.625Z,28.90
2018-06-30T11:48:41.690Z,28.70
2018-06-30T11:51:09.732Z,29.30
2018-06-30T11:53:37.831Z,29.90
2018-06-30T11:56:05.873Z,30.30
2018-06-30T11:58:33.899Z,30.30
2018-06-30T12:01:01.961Z,29.40
2018-06-30T12:06:04.657Z,29.50
2018-06-30T12:08:32.900Z,29.20
2018-06-30T12:11:00.966Z,29.30
2018-06-30T12:13:28.993Z,29.40
2018-06-30T12:15:57.061Z,30.00
2018-06-30T12:18:25.103Z,29.30
2018-06-30T12:20:53.169Z,29.50
2018-06-30T12:23:21.248Z,29.50
2018-06-30T12:25:49.363Z,29.90
2018-06-30T12:28:17.397Z,29.60
2018-06-30T12:30:45.613Z,29.60
2018-06-30T12:33:13.692Z,29.70
2018-06-30T12:35:41.776Z,30.50
2018-06-30T12:38:09.835Z,30.50
2018-06-30T12:40:37.906Z,30.10
2018-06-30T12:45:33.861Z,30.10
2018-06-30T12:48:01.937Z,30.90
2018-06-30T12:50:30.029Z,29.90
2018-06-30T12:52:58.467Z,29.90
2018-06-30T12:55:26.539Z,29.80
2018-06-30T12:57:54.638Z,29.40
2018-06-30T13:00:22.651Z,29.50
2018-06-30T13:02:50.684Z,29.90
2018-06-30T13:05:18.753Z,30.80
2018-06-30T13:07:46.821Z,31.10
2018-06-30T13:10:14.852Z,31.40
2018-06-30T13:12:42.916Z,30.70
2018-06-30T13:15:10.952Z,29.80
2018-06-30T13:17:40.303Z,29.90
2018-06-30T13:20:08.384Z,29.50
2018-06-30T13:22:36.445Z,29.80
2018-06-30T13:25:04.525Z,29.90
2018-06-30T13:27:32.617Z,29.90
2018-06-30T13:30:00.668Z,30.20
2018-06-30T13:32:34.886Z,30.60
2018-06-30T13:35:02.971Z,30.70
2018-06-30T13:37:31.013Z,30.60
2018-06-30T13:39:59.052Z,30.00
2018-06-30T13:42:27.125Z,30.30
2018-06-30T13:44:55.160Z,30.00
2018-06-30T13:47:23.225Z,30.20
2018-06-30T13:49:51.298Z,30.20
2018-06-30T13:52:19.337Z,30.30
2018-06-30T13:54:47.423Z,29.80
2018-06-30T13:57:15.477Z,30.00
2018-06-30T13:59:43.526Z,30.10
2018-06-30T14:02:11.568Z,30.10
2018-06-30T14:07:07.481Z,30.00
2018-06-30T14:09:35.525Z,30.00
2018-06-30T14:12:03.576Z,29.70
2018-06-30T14:14:31.631Z,29.90
2018-06-30T14:16:59.718Z,30.10
2018-06-30T14:19:27.756Z,30.90
2018-06-30T14:21:55.857Z,30.50
2018-06-30T14:24:23.932Z,30.20
2018-06-30T14:26:51.981Z,30.40
2018-06-30T14:29:20.100Z,30.70
2018-06-30T14:31:48.141Z,30.20
2018-06-30T14:34:16.573Z,29.50
2018-06-30T14:36:44.624Z,29.40
2018-06-30T14:39:13.318Z,29.60
2018-06-30T14:41:41.381Z,29.80
2018-06-30T14:44:09.420Z,30.00
2018-06-30T14:46:37.557Z,31.00
2018-06-30T14:49:05.906Z,31.40
2018-06-30T14:51:34.512Z,31.70
2018-06-30T14:54:02.661Z,31.40
2018-06-30T14:56:30.715Z,31.60
2018-06-30T14:58:58.746Z,31.60
2018-06-30T15:01:26.869Z,31.60
2018-06-30T15:03:54.905Z,32.00
2018-06-30T15:06:22.997Z,31.80
2018-06-30T15:08:51.034Z,31.90
2018-06-30T15:11:19.066Z,32.20
2018-06-30T15:13:47.139Z,32.30
2018-06-30T15:16:15.205Z,32.50
2018-06-30T15:18:43.348Z,32.20
2018-06-30T15:21:11.366Z,32.60
2018-06-30T15:23:39.472Z,32.20
2018-06-30T15:26:07.543Z,31.70
2018-06-30T15:28:35.952Z,32.90
2018-06-30T15:31:06.201Z,33.20
2018-06-30T15:33:34.261Z,33.60
2018-06-30T15:36:02.394Z,32.60
2018-06-30T15:38:30.464Z,32.90
2018-06-30T15:40:58.533Z,32.40
2018-06-30T15:43:26.569Z,32.60
2018-06-30T15:45:54.917Z,32.80
2018-06-30T15:48:23.006Z,32.30
2018-06-30T15:50:51.044Z,32.20
2018-06-30T15:53:19.759Z,32.40
2018-06-30T15:55:47.789Z,32.70
2018-06-30T15:58:15.860Z,32.70
2018-06-30T16:00:44.421Z,32.30
2018-06-30T16:03:12.461Z,32.30
2018-06-30T16:05:40.512Z,32.00
2018-06-30T16:08:08.762Z,32.10
2018-06-30T16:10:36.822Z,32.50
2018-06-30T16:13:04.972Z,32.60
2018-06-30T16:15:33.000Z,32.50
2018-06-30T16:18:01.047Z,32.60
2018-06-30T16:20:29.083Z,32.60
2018-06-30T16:22:57.177Z,32.70
2018-06-30T16:25:25.161Z,32.90
2018-06-30T16:27:53.233Z,33.00
2018-06-30T16:30:21.364Z,32.90
2018-06-30T16:32:49.345Z,33.00
2018-06-30T16:35:17.418Z,32.50
2018-06-30T16:40:13.316Z,32.90
2018-06-30T16:42:41.377Z,32.80
2018-06-30T16:45:09.408Z,32.80
2018-06-30T16:47:37.466Z,32.80
2018-06-30T16:50:06.176Z,33.00
2018-06-30T16:52:34.323Z,32.50
2018-06-30T16:55:02.389Z,33.10
2018-06-30T16:57:30.421Z,32.80
2018-06-30T16:59:58.482Z,32.80
2018-06-30T17:02:26.545Z,32.50
2018-06-30T17:04:54.616Z,32.80
2018-06-30T17:07:22.771Z,33.20
2018-06-30T17:09:50.773Z,33.40
2018-06-30T17:12:18.953Z,33.00
2018-06-30T17:14:47.110Z,33.20
2018-06-30T17:17:15.152Z,33.30
2018-06-30T17:19:43.208Z,33.20
2018-06-30T17:24:39.176Z,33.10
2018-06-30T17:27:07.237Z,33.60
2018-06-30T17:29:35.329Z,33.80
2018-06-30T17:32:03.395Z,33.00
2018-06-30T17:34:31.476Z,33.00
2018-06-30T17:36:59.537Z,32.70
2018-06-30T17:41:55.529Z,33.40
2018-06-30T17:44:23.580Z,33.50
2018-06-30T17:46:51.652Z,33.70
2018-06-30T17:49:19.695Z,33.80
2018-06-30T17:51:47.737Z,34.10
2018-06-30T17:54:15.791Z,33.90
2018-06-30T17:56:43.840Z,33.80
2018-06-30T17:59:11.915Z,34.00
2018-06-30T18:01:39.948Z,33.50
2018-06-30T18:04:08.025Z,33.60
2018-06-30T18:06:36.111Z,34.00
2018-06-30T18:09:07.164Z,33.90
2018-06-30T18:11:39.512Z,33.50
2018-06-30T18:14:08.066Z,34.20
2018-06-30T18:16:36.055Z,34.40
2018-06-30T18:19:04.176Z,34.10
2018-06-30T18:21:32.204Z,33.90
2018-06-30T18:24:00.292Z,34.10
2018-06-30T18:26:28.422Z,34.40
2018-06-30T18:28:56.465Z,34.30
2018-06-30T18:31:24.520Z,34.60
2018-06-30T18:33:52.550Z,34.50
2018-06-30T18:36:20.616Z,34.80
2018-06-30T18:38:48.669Z,35.00
2018-06-30T18:41:16.743Z,35.20
2018-06-30T18:43:44.809Z,34.90
2018-06-30T18:46:12.868Z,35.00
2018-06-30T18:48:40.932Z,35.30
2018-06-30T18:51:08.988Z,35.30
2018-06-30T18:53:37.077Z,35.50
2018-06-30T18:56:05.114Z,35.60
2018-06-30T18:58:33.205Z,35.80
2018-06-30T19:01:01.254Z,35.70
2018-06-30T19:03:29.292Z,35.90
2018-06-30T19:05:57.347Z,36.10
2018-06-30T19:08:25.431Z,36.30
2018-06-30T19:10:53.624Z,36.30
2018-06-30T19:13:21.692Z,36.60
2018-06-30T19:15:49.767Z,36.50
2018-06-30T19:18:17.848Z,36.70
2018-06-30T19:20:45.953Z,36.80
2018-06-30T19:23:14.024Z,36.90
2018-06-30T19:25:42.072Z,37.00
2018-06-30T19:28:10.142Z,37.30
2018-06-30T19:30:38.361Z,37.50
2018-06-30T19:33:06.421Z,37.60
2018-06-30T19:35:34.458Z,37.70
2018-06-30T19:38:02.529Z,37.80
2018-06-30T19:40:30.564Z,37.90
2018-06-30T19:42:58.620Z,38.00
2018-06-30T19:45:26.685Z,38.10
2018-06-30T19:47:54.859Z,38.10
2018-06-30T19:50:24.573Z,38.30
2018-06-30T19:52:52.782Z,38.40
2018-06-30T19:55:20.926Z,38.50
2018-06-30T19:57:49.089Z,38.80
2018-06-30T20:00:18.235Z,38.90
2018-06-30T20:02:46.301Z,39.30
2018-06-30T20:07:55.692Z,39.70
2018-06-30T20:10:24.892Z,39.70
2018-06-30T20:12:53.135Z,39.80
2018-06-30T20:15:21.382Z,40.00
2018-06-30T20:17:50.677Z,40.20
2018-06-30T20:22:47.524Z,40.60
2018-06-30T20:25:15.599Z,40.80
2018-06-30T20:27:43.676Z,40.80
2018-06-30T20:30:11.748Z,41.00
2018-06-30T20:32:40.286Z,40.90
2018-06-30T20:35:08.530Z,40.60
2018-06-30T20:37:36.403Z,40.90
2018-06-30T20:40:04.626Z,41.00
2018-06-30T20:42:32.670Z,41.30
2018-06-30T20:45:00.736Z,41.30
2018-06-30T20:47:28.994Z,41.50
2018-06-30T20:49:57.144Z,42.10
2018-06-30T20:52:25.244Z,42.40
2018-06-30T20:54:53.299Z,42.60
2018-06-30T20:57:21.357Z,42.60
2018-06-30T20:59:49.466Z,42.60
2018-06-30T21:02:17.505Z,42.80
2018-06-30T21:04:45.565Z,42.70
2018-06-30T21:07:13.640Z,43.00
2018-06-30T21:12:11.108Z,43.00
2018-06-30T21:16:08.569Z,43.10
2018-06-30T21:18:36.674Z,43.70
2018-06-30T21:21:04.808Z,43.80
2018-06-30T21:23:32.909Z,43.60
2018-06-30T21:26:01.077Z,43.30
2018-06-30T21:28:29.116Z,43.30
2018-06-30T21:30:57.188Z,43.30
2018-06-30T21:38:21.136Z,43.70
2018-06-30T21:40:49.226Z,44.00
2018-06-30T21:43:18.631Z,43.90
2018-06-30T21:45:46.777Z,43.70
2018-06-30T21:48:14.873Z,43.70
2018-06-30T21:50:42.904Z,43.70
2018-06-30T21:53:11.046Z,43.60
2018-06-30T21:55:46.139Z,43.90
2018-06-30T21:58:19.008Z,43.90
2018-06-30T22:00:53.954Z,44.20
2018-06-30T22:03:24.269Z,44.30
2018-06-30T22:05:53.957Z,44.20
2018-06-30T22:08:22.263Z,43.90
2018-06-30T22:10:53.420Z,44.20
2018-06-30T22:13:21.531Z,44.30
2018-06-30T22:15:50.296Z,44.60
2018-06-30T22:18:18.355Z,44.60
2018-06-30T22:20:46.413Z,44.60
2018-06-30T22:23:14.468Z,44.70
2018-06-30T22:25:42.490Z,44.60
2018-06-30T22:28:10.569Z,44.50
2018-06-30T22:30:38.616Z,44.70
2018-06-30T22:33:06.725Z,44.60
2018-06-30T22:35:34.772Z,44.60
2018-06-30T22:38:02.901Z,44.60
2018-06-30T22:40:31.086Z,44.70
2018-06-30T22:42:59.204Z,44.60
2018-06-30T22:45:27.279Z,44.90
2018-06-30T22:47:55.330Z,45.00
2018-06-30T22:50:23.381Z,44.90
2018-06-30T22:52:51.417Z,45.00
2018-06-30T22:55:19.487Z,45.20
2018-06-30T22:57:47.524Z,45.50
2018-06-30T23:00:17.452Z,45.60
2018-06-30T23:02:45.519Z,45.70
2018-06-30T23:05:13.594Z,45.50
2018-06-30T23:07:41.636Z,45.70
2018-06-30T23:10:10.988Z,45.60
2018-06-30T23:12:39.184Z,45.60
2018-06-30T23:15:08.916Z,45.70
2018-06-30T23:17:37.180Z,45.70
2018-06-30T23:20:05.460Z,46.80
2018-06-30T23:22:45.111Z,46.30
2018-06-30T23:25:13.196Z,46.60
2018-06-30T23:27:41.277Z,46.90
2018-06-30T23:30:09.365Z,47.20
2018-06-30T23:32:37.404Z,47.20
2018-06-30T23:35:05.480Z,47.10
2018-06-30T23:37:34.318Z,47.40
2018-06-30T23:40:02.367Z,47.20
2018-06-30T23:42:30.401Z,47.30
2018-06-30T23:44:58.460Z,47.30
2018-06-30T23:47:26.661Z,47.40
2018-06-30T23:49:54.952Z,47.70
2018-06-30T23:52:23.145Z,48.00
2018-06-30T23:54:51.212Z,47.90
2018-06-30T23:57:19.260Z,48.30
2018-06-30T23:59:47.382Z,48.60
